Aérodrome :
LOGIN :

S'inscrire | Disclaimer

   EN    FR    IT 

 










Légende :    VFR   VFR Marginal   IFR   IFR Intensif   IFR Très Intensif
Visi : 
Plafond : 
>= 8 km
>= 3000ft
5 à 8 km
1000 à 3000 ft
1500m à 5 km
500 à 1000 ft
800 à 1500m
200 à 500 ft
< 800m
< 200 ft
Symboles :   Orages  Brouillard  Fortes neiges  Fortes précipitations  Vent > 20 kt
SIGMETs :   Divers  Orages  Givrage  Turbulence  Onde Orograph.  Cendres Volcan.







- Altitude de l'aérodrome : 1768 ft


LEHC - Huesca Pirineos

DERNIER METAR :
  • 221930Z AUTO 04003KT 010V080 9999 NCD 16/11 Q1018

METARs EXPIRÉS :
  • 221900Z AUTO 01003KT 340V050 9999 NCD 17/11 Q1018
  • 221830Z AUTO VRB02KT 9999 NCD 18/11 Q1018
  • 221800Z AUTO 07004KT 9999 NCD 18/11 Q1017
  • 221730Z AUTO 06004KT 9999 NCD 19/11 Q1017
  • 221700Z 08006KT 9999 FEW060 19/11 Q1017

TAF TAF LEHC
Valide du 22 à 09h jusqu'au 23 à 09h UTC


220800Z 2209/2309 14007KT 9999 FEW040 TX22/2213Z TN11/2306Z
Pas de NOTAMs connus pour ce terrain.
2 SIGMETs publiés pour la FIR Madrid (LECM) :
 
Orages noyés dans la masse
LECM SIGMET 13 VALID 221918/222115 LEVA
LECM MADRID FIR/UIR EMBD TS OBS AT 1916Z WI N3554 W00631 - N3558 W00421 - N3858 W00420 - N3859 W00628 - N3554 W00631 TOP FL360 MOV N 20KT NC=
Orages noyés dans la masse
LECM SIGMET 12 VALID 221900/222100 LEVA
LECM MADRID FIR/UIR EMBD TS OBS AT 1846Z WI N4208 W00051 - N4252 W00041 - N4347 W00228 - N4417 W004 - N4240 W00425 - N4208 W00051 TOP FL360 MOV NE 20KT NC=



MET'MAP, la Météo Aéronautique d'un coup d'oeil ! - Copyright ORBIFLY Décembre 2007 - Disclaimer

ORBIFLY MET'MAP TEAM :

Programmation & Développement : Alexandra Zaïnal
Conception & Développement : Baudouin d'Aumeries
Co-Programmation & Développement : Marc-Olivier Méhu
Soutien technique & logistique : Manuel Goepfert

Contact : metmap@orbifly.com




SOURCES & CREDITS :

   NOAA